Time;durP1;ratioP1;P1;durP2;ratioP2;P2;SDS_P1;SDS_P2;PMS_P1;PMS_P2;Temp;Humidity;BMP_temperature;BMP_pressure;BME280_temperature;BME280_humidity;BME280_pressure;Samples;Min_cycle;Max_cycle;Signal;HPM_P1;HPM_P2
2021/12/14 00:01:10;;;;;;;;;;;;;;;12.56;71.82;101627.72;5051849;27;102156;-48
2021/12/14 00:03:40;;;;;;;5.70;5.20;;;;;;;12.55;71.83;101632.34;5049378;27;103565;-48
2021/12/14 00:06:08;;;;;;;6.60;5.78;;;;;;;12.54;71.85;101627.94;5044445;27;103897;-49
2021/12/14 00:08:48;;;;;;;5.45;4.95;;;;;;;12.55;71.70;101635.09;5054254;27;102159;-48
2021/12/14 00:11:33;;;;;;;5.30;4.80;;;;;;;12.56;71.83;101634.00;5050596;27;102597;-49
2021/12/14 00:14:27;;;;;;;5.68;5.18;;;;;;;12.55;71.77;101621.44;5050148;27;102394;-49
2021/12/14 00:16:58;;;;;;;5.60;5.10;;;;;;;12.56;71.73;101627.72;5048295;27;104165;-48
2021/12/14 00:19:26;;;;;;;5.03;4.63;;;;;;;12.55;71.74;101626.03;5052297;27;102133;-49
2021/12/14 00:21:55;;;;;;;5.63;5.13;;;;;;;12.55;71.75;101626.03;5050115;27;102954;-49
2021/12/14 00:24:26;;;;;;;5.73;5.07;;;;;;;12.55;71.71;101621.44;5050032;27;102614;-49
2021/12/14 00:26:56;;;;;;;5.28;4.78;;;;;;;12.54;71.66;101617.03;5049535;27;104158;-49
2021/12/14 00:29:25;;;;;;;5.72;5.15;;;;;;;12.55;71.82;101612.38;5049985;27;102385;-48
2021/12/14 00:31:55;;;;;;;5.60;5.10;;;;;;;12.54;72.00;101608.84;5049630;27;102222;-49
2021/12/14 00:34:34;;;;;;;4.80;4.40;;;;;;;12.53;71.80;101601.75;5046009;27;102947;-48
2021/12/14 00:37:01;;;;;;;5.35;4.93;;;;;;;12.54;71.76;101608.84;5048341;27;104255;-48
2021/12/14 00:39:27;;;;;;;5.28;4.78;;;;;;;12.54;71.69;101610.75;5046187;27;102128;-49
2021/12/14 00:41:54;;;;;;;4.88;4.47;;;;;;;12.54;71.57;101606.09;5046968;27;103695;-48
2021/12/14 00:44:21;;;;;;;5.35;4.85;;;;;;;12.54;71.47;101599.84;5049496;27;102121;-48
2021/12/14 00:46:48;;;;;;;5.10;4.63;;;;;;;12.54;71.67;101602.56;5049032;27;104024;-49
2021/12/14 00:49:16;;;;;;;7.85;6.93;;;;;;;12.54;71.66;101597.91;5052387;27;103163;-49
2021/12/14 00:51:43;;;;;;;7.30;6.53;;;;;;;12.54;71.71;101608.84;5052577;27;102352;-48
2021/12/14 00:54:12;;;;;;;7.80;7.00;;;;;;;12.54;71.69;101595.19;5049514;27;102528;-49
2021/12/14 00:56:41;;;;;;;8.18;7.10;;;;;;;12.53;71.65;101596.28;5051615;27;103861;-49
2021/12/14 00:59:09;;;;;;;8.93;6.88;;;;;;;12.54;71.76;101602.56;5048186;27;102824;-49
2021/12/14 01:01:41;;;;;;;10.30;7.60;;;;;;;12.53;71.80;101607.19;5053908;27;102409;-48
2021/12/14 01:04:11;;;;;;;8.27;7.07;;;;;;;12.53;71.74;101623.59;5058237;27;102788;-48
2021/12/14 01:06:45;;;;;;;9.40;7.90;;;;;;;12.53;71.76;101623.59;5058288;27;104849;-49
2021/12/14 01:09:17;;;;;;;8.75;7.47;;;;;;;12.52;71.65;101616.50;5044316;27;102288;-48
2021/12/14 01:11:46;;;;;;;9.32;7.10;;;;;;;12.53;71.75;101609.13;5057962;27;102218;-48
2021/12/14 01:14:17;;;;;;;8.65;7.00;;;;;;;12.54;71.60;101605.28;5059229;27;102303;-48
2021/12/14 01:16:55;;;;;;;7.18;6.32;;;;;;;12.53;71.61;101612.66;5057704;27;103981;-48
2021/12/14 01:19:26;;;;;;;7.80;6.77;;;;;;;12.52;71.60;101616.50;5059279;27;102315;-48
2021/12/14 01:27:21;;;;;;;7.85;7.00;;;;;;;12.52;71.55;101641.06;5057440;27;107863;-49
2021/12/14 01:29:50;;;;;;;7.70;6.82;;;;;;;12.52;71.75;101646.53;5054134;27;102908;-48
2021/12/14 01:32:16;;;;;;;8.55;7.13;;;;;;;12.52;71.68;101649.25;5054932;27;102382;-48
2021/12/14 01:34:44;;;;;;;8.35;6.70;;;;;;;12.52;71.66;101656.63;5060207;27;102219;-49
2021/12/14 01:37:18;;;;;;;7.53;6.43;;;;;;;12.52;71.64;101651.16;5055965;27;104007;-48
2021/12/14 01:40:01;;;;;;;7.13;6.43;;;;;;;12.52;71.62;101649.25;5056053;27;102570;-48
2021/12/14 01:42:32;;;;;;;5.40;4.78;;;;;;;12.52;71.62;101654.72;5056392;27;102225;-49
2021/12/14 01:45:05;;;;;;;4.57;4.18;;;;;;;12.52;71.63;101653.91;5051060;27;103267;-49
2021/12/14 01:47:34;;;;;;;4.57;4.15;;;;;;;12.51;71.69;101658.50;5055452;27;103878;-48
2021/12/14 01:50:02;;;;;;;23.10;6.47;;;;;;;12.52;71.57;101662.91;5057289;27;102101;-48
2021/12/14 01:52:34;;;;;;;4.75;4.10;;;;;;;12.52;71.69;101664.81;5047804;27;102451;-48
2021/12/14 01:55:07;;;;;;;4.63;4.18;;;;;;;12.51;71.41;101658.50;5051455;27;102148;-48
2021/12/14 01:57:35;;;;;;;4.25;3.92;;;;;;;12.51;71.43;101669.44;5055826;27;103866;-49
2021/12/14 02:00:06;;;;;;;4.10;3.80;;;;;;;12.50;71.69;101671.34;5059378;27;102625;-48
2021/12/14 02:02:42;;;;;;;4.95;4.15;;;;;;;12.51;71.47;101674.88;5057114;27;102535;-49
2021/12/14 02:05:22;;;;;;;3.80;3.50;;;;;;;12.51;71.71;101672.16;5056991;27;102388;-48
2021/12/14 02:07:50;;;;;;;4.47;4.05;;;;;;;12.50;71.76;101685.00;5053016;27;103868;-48
2021/12/14 02:10:21;;;;;;;4.38;3.97;;;;;;;12.51;71.50;101683.09;5056831;27;102916;-48
2021/12/14 02:12:47;;;;;;;4.25;3.85;;;;;;;12.51;71.56;101680.34;5051742;27;102244;-49
2021/12/14 02:15:18;;;;;;;4.43;4.03;;;;;;;12.51;71.64;101674.88;5056368;27;102106;-48
2021/12/14 02:17:45;;;;;;;4.25;3.72;;;;;;;12.50;71.65;101682.25;5052274;27;103865;-49
2021/12/14 02:20:16;;;;;;;4.10;3.70;;;;;;;12.50;71.60;101679.53;5052976;27;102318;-48
2021/12/14 02:22:44;;;;;;;3.60;3.30;;;;;;;12.50;71.48;101679.53;5047693;27;102799;-48
2021/12/14 02:25:12;;;;;;;3.97;3.67;;;;;;;12.50;71.48;101668.59;5054742;27;102722;-49
2021/12/14 02:27:40;;;;;;;4.10;3.70;;;;;;;12.52;71.58;101675.75;5049864;27;103922;-49
2021/12/14 02:30:10;;;;;;;4.38;3.97;;;;;;;12.50;71.47;101667.78;5052263;27;102487;-50
2021/12/14 02:32:36;;;;;;;4.20;3.80;;;;;;;12.51;71.57;101683.09;5052797;27;102635;-49
2021/12/14 02:35:08;;;;;;;3.72;3.42;;;;;;;12.52;71.56;101684.75;5054612;27;102729;-49
2021/12/14 02:37:39;;;;;;;3.78;3.47;;;;;;;12.50;71.83;101684.16;5044400;27;103888;-48
2021/12/14 02:40:20;;;;;;;4.07;3.78;;;;;;;12.52;71.70;101681.19;5052522;27;105425;-48
2021/12/14 02:42:49;;;;;;;3.83;3.50;;;;;;;12.51;71.54;101677.63;5048894;27;102151;-48
2021/12/14 02:45:15;;;;;;;;;;;;;;;12.51;71.66;101674.88;5047772;27;102216;-49
2021/12/14 02:47:43;;;;;;;3.70;3.40;;;;;;;12.50;71.63;101685.00;5045239;27;103953;-49
2021/12/14 02:50:10;;;;;;;4.00;3.60;;;;;;;12.50;71.49;101678.72;5050132;27;102510;-49
2021/12/14 02:52:37;;;;;;;5.15;4.20;;;;;;;12.50;71.57;101678.72;5054461;27;102092;-49
2021/12/14 02:55:12;;;;;;;3.72;3.42;;;;;;;12.50;71.41;101684.16;5054822;27;102664;-48
2021/12/14 02:57:41;;;;;;;4.20;3.80;;;;;;;12.50;71.38;101684.16;5046705;27;104151;-50
2021/12/14 03:00:15;;;;;;;3.83;3.53;;;;;;;12.50;71.50;101681.44;5043530;27;103738;-49
2021/12/14 03:02:42;;;;;;;10.25;7.88;;;;;;;12.49;71.44;101674.34;5046716;27;102580;-48
2021/12/14 03:05:12;;;;;;;10.90;8.00;;;;;;;12.50;71.54;101673.25;5055311;27;102658;-49
2021/12/14 03:07:43;;;;;;;12.43;8.18;;;;;;;12.49;71.55;101672.44;5046782;27;103661;-48
2021/12/14 03:12:48;;;;;;;9.75;7.95;;;;;;;12.50;71.56;101684.16;5049424;27;102404;-49
2021/12/14 03:15:19;;;;;;;11.38;7.38;;;;;;;12.50;71.57;101689.63;5053216;27;102231;-48
2021/12/14 03:17:49;;;;;;;9.77;7.63;;;;;;;12.50;71.37;101684.16;5049671;27;103900;-49
2021/12/14 03:20:19;;;;;;;9.68;7.82;;;;;;;12.50;71.50;101678.72;5052745;27;102095;-49
2021/12/14 03:22:50;;;;;;;10.25;7.63;;;;;;;12.50;71.45;101684.16;5047769;27;102568;-49
2021/12/14 03:25:20;;;;;;;10.25;7.90;;;;;;;12.49;71.70;101683.34;5040263;27;105786;-49
2021/12/14 03:27:48;;;;;;;10.25;7.85;;;;;;;12.50;71.45;101684.16;5044945;27;104073;-48
2021/12/14 03:30:22;;;;;;;8.70;7.50;;;;;;;12.50;72.00;101686.91;5050590;27;103554;-48
2021/12/14 03:32:49;;;;;;;11.15;8.25;;;;;;;12.49;71.49;101688.81;5049775;27;102645;-48
2021/12/14 03:35:18;;;;;;;8.40;7.13;;;;;;;12.49;71.40;101685.25;5055062;27;102254;-48
2021/12/14 03:37:45;;;;;;;;;;;;;;;12.49;71.66;101677.06;5050065;27;103886;-48
2021/12/14 03:40:12;;;;;;;8.70;7.32;;;;;;;12.49;71.44;101686.09;5048793;27;102552;-48
2021/12/14 03:42:42;;;;;;;10.00;7.50;;;;;;;12.48;71.44;101683.63;5049924;27;102499;-48
2021/12/14 03:45:12;;;;;;;11.82;8.10;;;;;;;12.49;71.53;101682.53;5053565;27;102679;-48
2021/12/14 03:47:41;;;;;;;11.13;7.82;;;;;;;12.48;71.48;101681.72;5044904;27;104091;-49
2021/12/14 03:50:12;;;;;;;10.80;8.05;;;;;;;12.49;71.67;101688.00;5052197;27;102725;-48
2021/12/14 03:52:40;;;;;;;12.05;8.80;;;;;;;12.49;71.16;101699.72;5049322;27;102396;-49
2021/12/14 03:55:10;;;;;;;10.82;8.15;;;;;;;12.49;71.47;101707.09;5047044;27;102619;-48
2021/12/14 03:57:37;;;;;;;11.57;8.80;;;;;;;12.48;71.39;101700.81;5046470;27;103705;-48
2021/12/14 04:00:09;;;;;;;10.43;8.52;;;;;;;12.48;71.38;101709.03;5051430;27;102075;-48
2021/12/14 04:02:37;;;;;;;11.88;8.80;;;;;;;12.48;71.34;101702.75;5043791;27;102120;-49
2021/12/14 04:05:10;;;;;;;11.45;8.20;;;;;;;12.48;71.53;101702.75;5050706;27;102216;-49
2021/12/14 04:07:40;;;;;;;8.75;7.22;;;;;;;12.47;71.27;101701.88;5049615;27;103911;-49
2021/12/14 04:10:10;;;;;;;10.52;8.15;;;;;;;12.48;71.67;101708.19;5050702;27;102421;-48
2021/12/14 04:12:41;;;;;;;11.25;7.90;;;;;;;12.47;71.48;101701.88;5044924;27;102382;-48
2021/12/14 04:15:10;;;;;;;9.25;7.68;;;;;;;12.49;71.35;101698.91;5054358;27;102976;-49
2021/12/14 04:17:40;;;;;;;11.18;8.55;;;;;;;12.48;71.30;101697.28;5046345;27;104046;-49
2021/12/14 04:20:11;;;;;;;9.70;7.75;;;;;;;12.48;71.48;101683.63;5048233;27;103164;-49
2021/12/14 04:22:42;;;;;;;9.50;7.28;;;;;;;12.48;71.33;101686.34;5052290;27;102437;-49
2021/12/14 04:25:09;;;;;;;10.18;7.30;;;;;;;12.47;71.37;101685.50;5047065;27;103026;-49
2021/12/14 04:27:37;;;;;;;10.50;7.78;;;;;;;12.47;71.42;101669.13;5050216;27;103912;-49
2021/12/14 04:30:07;;;;;;;9.77;6.90;;;;;;;12.47;71.46;101680.03;5050065;27;102351;-49
2021/12/14 04:32:36;;;;;;;8.90;7.30;;;;;;;12.47;71.28;101690.97;5051499;27;102230;-49
2021/12/14 04:35:04;;;;;;;10.30;7.43;;;;;;;12.47;71.48;101684.69;5050335;27;102145;-48
2021/12/14 04:37:30;;;;;;;10.65;7.55;;;;;;;12.47;71.39;101692.88;5040457;27;103857;-48
2021/12/14 04:40:13;;;;;;;10.75;7.70;;;;;;;12.47;71.63;101692.88;5051070;27;104006;-50
2021/12/14 04:53:50;;;;;;;7.75;6.72;;;;;;;12.48;71.65;101703.56;5044533;27;102171;-48
2021/12/14 04:56:18;;;;;;;9.85;7.95;;;;;;;12.48;71.34;101700.00;5049981;27;102342;-48
2021/12/14 04:58:48;;;;;;;9.45;7.35;;;;;;;12.47;71.35;101707.34;5047455;27;104105;-49
2021/12/14 05:01:16;;;;;;;9.50;6.97;;;;;;;12.47;71.24;101707.34;5049386;27;102196;-49
2021/12/14 05:03:48;;;;;;;8.85;7.35;;;;;;;12.47;71.32;101712.81;5046344;27;102250;-48
2021/12/14 05:06:17;;;;;;;7.30;6.35;;;;;;;12.48;71.29;101710.94;5044998;27;102432;-49
2021/12/14 05:11:18;;;;;;;9.82;7.65;;;;;;;12.47;71.20;101725.63;5050672;27;102657;-48
2021/12/14 05:13:48;;;;;;;7.70;6.80;;;;;;;12.47;71.26;101729.19;5045639;27;102818;-49
2021/12/14 05:16:16;;;;;;;8.43;6.75;;;;;;;12.48;71.23;101735.50;5046658;27;102220;-48
2021/12/14 05:18:47;;;;;;;8.57;6.95;;;;;;;12.48;71.34;101746.44;5051791;27;104077;-49
2021/12/14 05:21:22;;;;;;;9.73;7.55;;;;;;;12.46;71.12;101743.94;5051394;27;102673;-49
2021/12/14 05:23:48;;;;;;;9.65;6.75;;;;;;;12.48;71.30;101735.50;5044880;27;102910;-48
2021/12/14 05:26:16;;;;;;;10.45;7.45;;;;;;;12.47;71.24;101728.38;5051407;27;102206;-49
2021/12/14 05:28:43;;;;;;;10.25;7.30;;;;;;;12.47;71.29;101739.28;5049602;27;107940;-49
2021/12/14 05:31:09;;;;;;;9.07;7.78;;;;;;;12.47;71.35;101744.75;5043218;27;102157;-49
2021/12/14 05:33:37;;;;;;;8.98;7.05;;;;;;;12.47;71.13;101745.56;5045312;27;102477;-48
2021/12/14 05:36:09;;;;;;;8.18;6.80;;;;;;;12.47;71.26;101742.84;5047076;27;102311;-48
2021/12/14 05:44:04;;;;;;;10.30;7.75;;;;;;;12.48;71.27;101746.44;5045751;27;102107;-48
2021/12/14 05:46:31;;;;;;;8.02;7.22;;;;;;;12.49;71.41;101756.25;5048494;27;103926;-49
2021/12/14 05:49:00;;;;;;;8.98;7.18;;;;;;;12.49;71.17;101753.53;5051744;27;103901;-48
2021/12/14 05:51:30;;;;;;;7.82;7.03;;;;;;;12.48;71.34;101740.97;5044805;27;102367;-48
2021/12/14 05:53:57;;;;;;;8.05;6.70;;;;;;;12.48;71.33;101752.69;5044060;27;102793;-48
2021/12/14 05:56:26;;;;;;;10.18;7.00;;;;;;;12.49;71.31;101753.53;5053302;27;103023;-48
2021/12/14 05:58:55;;;;;;;8.00;7.00;;;;;;;12.48;71.48;101747.25;5046389;27;104043;-48
2021/12/14 06:01:25;;;;;;;7.85;6.90;;;;;;;12.48;71.44;101749.16;5043791;27;102573;-48
2021/12/14 06:03:55;;;;;;;8.82;6.97;;;;;;;12.49;71.30;101750.78;5046818;27;102763;-48
2021/12/14 06:06:30;;;;;;;9.60;7.03;;;;;;;12.49;71.41;101758.97;5045055;27;102566;-48
2021/12/14 06:09:07;;;;;;;9.23;6.43;;;;;;;12.48;71.34;101762.81;5040930;27;104006;-48
2021/12/14 06:11:34;;;;;;;7.32;6.43;;;;;;;12.49;71.20;101769.91;5046408;27;102474;-48
2021/12/14 06:14:00;;;;;;;7.60;6.65;;;;;;;12.48;71.25;101762.81;5051497;27;102487;-48
2021/12/14 06:16:29;;;;;;;7.90;6.55;;;;;;;12.49;71.22;101758.97;5044539;27;102867;-49
2021/12/14 06:19:12;;;;;;;5.47;4.93;;;;;;;12.47;71.58;101753.75;5050590;27;103976;-49
2021/12/14 06:21:39;;;;;;;8.13;6.50;;;;;;;12.48;71.30;101751.88;5053587;27;102183;-48
2021/12/14 06:24:09;;;;;;;7.93;6.90;;;;;;;12.49;71.21;101742.59;5039438;27;102657;-48
2021/12/14 06:26:39;;;;;;;8.65;7.00;;;;;;;12.48;71.45;101740.97;5055031;27;103924;-48
2021/12/14 06:29:08;;;;;;;8.02;7.22;;;;;;;12.48;71.24;101749.16;5054308;27;103926;-48
2021/12/14 06:31:35;;;;;;;8.05;6.80;;;;;;;12.48;71.47;101746.44;5053865;27;102425;-48
2021/12/14 06:34:16;;;;;;;8.88;6.97;;;;;;;12.47;71.36;101734.66;5055176;27;102140;-49
2021/12/14 06:37:17;;;;;;;7.57;6.53;;;;;;;12.47;71.44;101740.09;5048512;27;102173;-48
2021/12/14 06:40:06;;;;;;;8.10;7.07;;;;;;;12.48;71.26;101740.97;5054523;27;104092;-48
2021/12/14 06:42:34;;;;;;;8.93;7.35;;;;;;;12.48;71.37;101746.44;5053129;27;101938;-49
2021/12/14 06:45:08;;;;;;;8.82;7.55;;;;;;;12.47;71.30;101745.56;5054059;27;103909;-49
2021/12/14 06:47:36;;;;;;;7.30;6.57;;;;;;;12.48;71.35;101740.97;5056237;27;102715;-48
2021/12/14 06:50:06;;;;;;;7.90;6.82;;;;;;;12.47;71.27;101750.22;5054994;27;104004;-49
2021/12/14 06:52:35;;;;;;;9.27;7.15;;;;;;;12.47;71.16;101744.75;5052611;27;102232;-48
2021/12/14 06:55:04;;;;;;;8.32;6.45;;;;;;;12.47;71.29;101748.31;5051450;27;102095;-48
2021/12/14 06:57:31;;;;;;;8.60;7.60;;;;;;;12.47;71.21;101748.31;5049457;27;102724;-48
2021/12/14 06:59:59;;;;;;;8.63;7.35;;;;;;;12.48;71.25;101738.22;5052091;27;104067;-49
2021/12/14 07:02:26;;;;;;;8.95;7.22;;;;;;;12.47;71.31;101736.56;5048294;27;102654;-48
2021/12/14 07:04:52;;;;;;;8.20;7.13;;;;;;;12.47;71.41;101737.38;5052393;27;103085;-48
2021/12/14 07:07:22;;;;;;;9.40;7.45;;;;;;;12.47;71.35;101733.84;5055808;27;102640;-49
2021/12/14 07:09:52;;;;;;;9.07;7.57;;;;;;;12.47;71.37;101750.22;5049485;27;104030;-48
2021/12/14 07:12:23;;;;;;;4.95;4.50;;;;;;;12.48;71.25;101751.88;5053059;27;102058;-48
2021/12/14 07:15:09;;;;;;;5.03;4.53;;;;;;;12.47;71.28;101744.75;5050095;27;102014;-49
2021/12/14 07:17:44;;;;;;;4.85;4.45;;;;;;;12.47;71.34;101744.75;5041706;27;102496;-49
2021/12/14 07:20:21;;;;;;;5.07;4.63;;;;;;;12.47;71.21;101744.75;5048366;27;103959;-49
2021/12/14 07:22:50;;;;;;;5.30;4.90;;;;;;;12.48;71.37;101740.97;5049275;27;102282;-49
2021/12/14 07:25:22;;;;;;;5.18;4.78;;;;;;;12.48;71.24;101743.69;5052093;27;102102;-48
2021/12/14 07:27:50;;;;;;;4.80;4.40;;;;;;;12.48;71.34;101747.25;5044000;27;102638;-49
2021/12/14 07:30:21;;;;;;;5.18;4.78;;;;;;;12.48;71.16;101746.44;5045813;27;103950;-49
2021/12/14 07:32:52;;;;;;;5.15;4.68;;;;;;;12.49;71.34;101753.53;5045504;27;102545;-48
2021/12/14 07:35:36;;;;;;;4.88;4.47;;;;;;;12.48;71.02;101740.97;5046215;27;102349;-48
2021/12/14 07:38:19;;;;;;;5.25;4.80;;;;;;;12.48;71.17;101752.69;5046712;27;102228;-48
2021/12/14 07:40:48;;;;;;;5.10;4.60;;;;;;;12.48;71.37;101747.25;5053054;27;104457;-48
2021/12/14 07:43:20;;;;;;;5.65;5.18;;;;;;;12.48;71.21;101752.69;5054440;27;102308;-48
2021/12/14 07:45:48;;;;;;;4.82;4.43;;;;;;;12.49;71.26;101762.53;5048674;27;102469;-48
2021/12/14 07:48:14;;;;;;;4.78;4.38;;;;;;;12.49;71.22;101761.72;5043485;27;102582;-48
2021/12/14 07:50:49;;;;;;;5.57;4.75;;;;;;;12.49;71.19;101769.91;5050199;27;103996;-48
2021/12/14 07:53:29;;;;;;;5.22;4.75;;;;;;;12.50;71.20;101771.53;5042052;27;102625;-48
2021/12/14 07:55:56;;;;;;;5.30;4.80;;;;;;;12.50;71.36;101782.47;5045042;27;102922;-48
2021/12/14 07:58:32;;;;;;;5.45;5.05;;;;;;;12.51;nan;101795.03;5047889;27;102375;-48
2021/12/14 08:00:59;;;;;;;5.30;4.80;;;;;;;12.50;71.43;101794.22;5046313;27;107952;-49
2021/12/14 08:03:33;;;;;;;4.47;4.10;;;;;;;12.51;71.25;101797.75;5049626;27;102336;-49
2021/12/14 08:06:03;;;;;;;5.03;4.63;;;;;;;12.50;71.21;101788.75;5047889;27;102250;-48
2021/12/14 08:13:57;;;;;;;5.53;5.03;;;;;;;12.50;71.39;101799.66;5051221;27;102426;-48
2021/12/14 08:16:24;;;;;;;5.68;5.18;;;;;;;12.51;71.27;101800.47;5052093;27;102627;-48
2021/12/14 08:18:51;;;;;;;5.00;4.60;;;;;;;12.50;71.35;101799.66;5050873;27;102270;-49
2021/12/14 08:21:20;;;;;;;5.55;5.13;;;;;;;12.50;71.00;101782.47;5045334;27;103912;-48
2021/12/14 08:23:50;;;;;;;;;;;;;;;12.50;71.23;101793.38;5056454;27;102111;-48
2021/12/14 08:26:21;;;;;;;5.05;4.65;;;;;;;12.51;71.17;101789.56;5048479;27;103850;-48
2021/12/14 08:28:53;;;;;;;5.30;4.90;;;;;;;12.50;71.24;101787.94;5051065;27;102312;-49
2021/12/14 08:31:24;;;;;;;5.30;4.82;;;;;;;12.51;71.16;101781.38;5046214;27;103931;-48
2021/12/14 08:33:56;;;;;;;5.18;4.68;;;;;;;12.50;71.17;101766.09;5041021;27;102653;-48
2021/12/14 08:36:23;;;;;;;5.22;4.80;;;;;;;12.50;71.23;101763.34;5050211;27;102618;-49
2021/12/14 08:39:02;;;;;;;9.48;7.35;;;;;;;12.50;71.24;101768.81;5044434;27;102715;-48
2021/12/14 08:41:29;;;;;;;4.05;3.75;;;;;;;12.49;71.38;101770.72;5040775;27;103990;-49
2021/12/14 08:43:57;;;;;;;3.80;3.50;;;;;;;12.49;71.33;101765.25;5046156;27;102464;-49
2021/12/14 08:46:29;;;;;;;3.92;3.55;;;;;;;12.50;71.29;101763.34;5052649;27;102618;-48
2021/12/14 08:48:58;;;;;;;3.50;3.30;;;;;;;12.49;71.26;101761.72;5050155;27;102555;-49
2021/12/14 08:51:29;;;;;;;3.88;3.58;;;;;;;12.50;71.08;101766.09;5045917;27;104159;-48
2021/12/14 08:53:59;;;;;;;4.00;3.70;;;;;;;12.49;71.19;101765.25;5048549;27;102579;-49
2021/12/14 08:56:32;;;;;;;3.58;3.35;;;;;;;12.49;71.35;101759.81;5049237;27;102305;-49
2021/12/14 08:58:59;;;;;;;4.38;3.97;;;;;;;12.48;71.30;101752.69;5046455;27;102642;-48
2021/12/14 09:01:31;;;;;;;3.88;3.55;;;;;;;12.49;70.86;101745.34;5044242;27;104074;-48
2021/12/14 09:04:01;;;;;;;4.07;3.78;;;;;;;12.49;71.24;101745.34;5050947;27;102145;-48
2021/12/14 09:06:36;;;;;;;3.30;3.05;;;;;;;12.48;71.21;101740.97;5052566;27;102297;-49
2021/12/14 09:09:07;;;;;;;3.78;3.47;;;;;;;12.49;71.19;101748.06;5048506;27;102424;-49
2021/12/14 09:11:38;;;;;;;3.55;3.25;;;;;;;12.47;71.14;101734.66;5048843;27;103976;-49
2021/12/14 09:14:09;;;;;;;3.92;3.63;;;;;;;12.47;71.23;101739.28;5044464;27;103980;-48
2021/12/14 09:16:37;;;;;;;3.70;3.40;;;;;;;12.47;71.19;101731.91;5042386;27;102111;-49
2021/12/14 09:19:07;;;;;;;3.78;3.47;;;;;;;12.48;71.22;101724.59;5043791;27;102379;-49
2021/12/14 09:21:39;;;;;;;3.33;3.13;;;;;;;12.47;71.17;101712.00;5044765;27;103956;-49
2021/12/14 09:24:13;;;;;;;3.90;3.60;;;;;;;12.47;71.11;101701.06;5048782;27;102454;-48
2021/12/14 09:26:43;;;;;;;3.28;3.08;;;;;;;12.47;71.16;101701.06;5049490;27;102207;-50
2021/12/14 09:29:15;;;;;;;3.45;3.17;;;;;;;12.47;71.23;101693.69;5052498;27;103757;-49
2021/12/14 09:31:47;;;;;;;3.60;3.40;;;;;;;12.46;71.06;101686.59;5036809;27;104586;-48
2021/12/14 09:34:16;;;;;;;3.33;3.13;;;;;;;12.47;71.05;101681.97;5048426;27;102172;-49
2021/12/14 09:36:45;;;;;;;3.63;3.35;;;;;;;12.47;71.15;101676.50;5051275;27;102401;-49
2021/12/14 09:39:16;;;;;;;3.40;3.10;;;;;;;12.46;71.16;101677.59;5048319;27;102497;-48
2021/12/14 09:41:45;;;;;;;3.72;3.42;;;;;;;12.46;70.99;101678.41;5042318;27;104155;-49
2021/12/14 09:44:16;;;;;;;3.80;3.50;;;;;;;12.47;71.21;101684.69;5048634;27;102752;-48
2021/12/14 09:46:44;;;;;;;3.08;2.88;;;;;;;12.46;71.19;101699.44;5050432;27;102521;-48
2021/12/14 09:49:12;;;;;;;3.28;3.08;;;;;;;12.46;71.05;101699.44;5044800;27;102669;-48
2021/12/14 09:51:43;;;;;;;3.17;2.97;;;;;;;12.46;71.14;101699.44;5048216;27;103897;-48
2021/12/14 09:54:15;;;;;;;3.90;3.60;;;;;;;12.46;71.07;101699.44;5039578;27;102363;-49
2021/12/14 09:56:46;;;;;;;3.13;2.83;;;;;;;12.46;71.03;101702.16;5040087;27;103760;-48
2021/12/14 09:59:14;;;;;;;3.38;3.17;;;;;;;12.45;71.15;101698.63;5049601;27;102156;-48
2021/12/14 10:01:46;;;;;;;3.30;3.00;;;;;;;12.44;71.17;101701.59;5043856;27;103977;-48
2021/12/14 10:04:15;;;;;;;3.58;3.28;;;;;;;12.45;70.81;101712.25;5053113;27;102217;-49
2021/12/14 10:06:42;;;;;;;3.55;3.25;;;;;;;12.46;71.06;101710.34;5052388;27;106375;-48
2021/12/14 10:09:11;;;;;;;3.55;3.35;;;;;;;12.45;71.25;101719.63;5047552;27;103221;-48
2021/12/14 10:12:01;;;;;;;3.25;3.05;;;;;;;12.46;71.15;101713.91;5051216;27;103892;-48
2021/12/14 10:14:31;;;;;;;3.30;3.10;;;;;;;12.45;71.17;101705.97;5044171;27;102605;-49
2021/12/14 10:17:00;;;;;;;3.55;3.33;;;;;;;12.44;71.10;101707.91;5051501;27;102563;-48
2021/12/14 10:19:29;;;;;;;3.50;3.22;;;;;;;12.45;71.21;101708.72;5049209;27;102566;-49
2021/12/14 10:22:00;;;;;;;3.53;3.22;;;;;;;12.44;71.17;101707.91;5046753;27;103973;-48
2021/12/14 10:24:27;;;;;;;3.33;3.13;;;;;;;12.45;71.10;101715.00;5043435;27;102471;-49
2021/12/14 10:26:57;;;;;;;3.95;3.65;;;;;;;12.44;71.20;101704.31;5042297;27;102295;-49
2021/12/14 10:29:26;;;;;;;3.40;3.20;;;;;;;12.43;71.13;101699.94;5038662;27;105819;-48
2021/12/14 10:31:59;;;;;;;3.50;3.20;;;;;;;12.45;71.42;101689.59;5049261;27;104067;-48
2021/12/14 10:34:30;;;;;;;3.70;3.40;;;;;;;12.44;71.14;101688.78;5051793;27;102267;-49
2021/12/14 10:37:08;;;;;;;3.17;2.97;;;;;;;12.43;71.07;101691.75;5052918;27;103620;-49
2021/12/14 10:43:06;;;;;;;3.30;3.10;;;;;;;12.43;71.08;101689.03;4998313;27;104051;-48
2021/12/14 10:45:32;;;;;;;;;;;;;;;12.43;71.09;101689.03;5043742;27;102941;-49
2021/12/14 10:48:00;;;;;;;3.00;2.80;;;;;;;12.42;70.88;101688.22;5037038;27;102644;-48
2021/12/14 10:50:33;;;;;;;3.10;2.90;;;;;;;12.43;71.15;101686.28;5046452;27;102495;-48
2021/12/14 10:53:00;;;;;;;3.10;2.90;;;;;;;12.42;71.09;101677.28;5051092;27;104226;-48
2021/12/14 10:55:35;;;;;;;3.10;2.90;;;;;;;12.42;71.02;101673.75;5045409;27;102548;-48
2021/12/14 10:58:03;;;;;;;2.95;2.75;;;;;;;12.42;71.10;101665.53;5049900;27;102573;-49
2021/12/14 11:00:36;;;;;;;3.20;3.00;;;;;;;12.42;70.98;101673.75;5054782;27;102287;-49
2021/12/14 11:03:09;;;;;;;3.30;3.10;;;;;;;12.41;71.00;101681.09;5053375;27;103931;-49
2021/12/14 11:05:40;;;;;;;3.20;3.00;;;;;;;12.42;71.09;101679.19;5049305;27;102580;-48
2021/12/14 11:08:31;;;;;;;3.17;2.97;;;;;;;12.41;71.09;101686.56;5052909;27;102744;-48
2021/12/14 11:10:55;;;;;;;3.10;2.90;;;;;;;12.41;71.04;101685.75;5047904;27;102268;-49
2021/12/14 11:13:23;;;;;;;3.00;2.80;;;;;;;12.41;71.03;101685.75;5053141;27;103894;-48
2021/12/14 11:15:54;;;;;;;3.17;2.97;;;;;;;12.41;70.91;101692.03;5045471;27;102225;-48
2021/12/14 11:18:24;;;;;;;3.03;2.83;;;;;;;12.41;71.01;101693.94;5049429;27;102171;-49
2021/12/14 11:20:55;;;;;;;3.45;3.15;;;;;;;12.40;71.09;101693.09;5050182;27;102519;-49
2021/12/14 11:23:25;;;;;;;3.33;3.08;;;;;;;12.40;71.08;101693.09;5044049;27;104069;-48
2021/12/14 11:25:59;;;;;;;2.75;2.58;;;;;;;12.40;71.10;101695.00;5052846;27;102586;-48
2021/12/14 11:28:33;;;;;;;2.60;2.40;;;;;;;12.41;70.86;101688.47;5044200;27;102307;-48
2021/12/14 11:31:04;;;;;;;2.72;2.53;;;;;;;12.40;71.06;101703.19;5043845;27;103505;-49
2021/12/14 11:33:33;;;;;;;2.95;2.75;;;;;;;12.40;71.08;101695.81;5045650;27;103945;-48
2021/12/14 11:36:04;;;;;;;;;;;;;;;12.40;71.02;101695.00;5048330;27;103969;-49
2021/12/14 11:38:35;;;;;;;2.90;2.70;;;;;;;12.40;71.11;101686.81;5050254;27;102356;-49
2021/12/14 11:41:19;;;;;;;2.85;2.65;;;;;;;12.40;70.62;101686.81;5049894;27;102979;-48
2021/12/14 11:43:49;;;;;;;3.17;2.72;;;;;;;12.40;70.99;101692.28;5043997;27;103849;-48
2021/12/14 11:46:16;;;;;;;2.88;2.67;;;;;;;12.40;70.88;101698.56;5041104;27;102656;-48
2021/12/14 11:48:42;;;;;;;2.80;2.60;;;;;;;12.40;71.12;101700.47;5045597;27;102546;-49
2021/12/14 11:51:10;;;;;;;2.90;2.70;;;;;;;12.39;70.91;101693.38;5052080;27;102249;-49
2021/12/14 11:53:38;;;;;;;3.10;2.90;;;;;;;12.40;70.93;101697.72;5044387;27;104089;-49
2021/12/14 11:56:09;;;;;;;3.30;3.10;;;;;;;12.40;71.03;101695.00;5044542;27;103162;-49
2021/12/14 11:58:38;;;;;;;3.30;3.00;;;;;;;12.40;71.15;101689.53;5045675;27;103571;-50
2021/12/14 12:01:10;;;;;;;3.25;3.05;;;;;;;12.40;71.03;101678.63;5050669;27;102355;-49
2021/12/14 12:03:45;;;;;;;3.17;2.97;;;;;;;12.40;70.88;101684.09;5047936;27;105130;-48
2021/12/14 12:11:55;;;;;;;3.53;3.22;;;;;;;12.39;70.96;101676.97;5054524;27;102245;-49
2021/12/14 12:14:29;;;;;;;3.80;3.50;;;;;;;12.40;71.07;101667.69;5045329;27;103753;-48